createdAt,value
2022-10-19T00:02:30.755Z,22.30
2022-10-19T00:05:33.241Z,20.40
2022-10-19T00:08:35.701Z,21.33
2022-10-19T00:11:40.407Z,26.00
2022-10-19T00:14:42.820Z,29.95
2022-10-19T00:17:45.194Z,26.50
2022-10-19T00:20:47.681Z,24.27
2022-10-19T00:23:50.126Z,28.40
2022-10-19T00:26:52.543Z,26.58
2022-10-19T00:29:54.910Z,22.60
2022-10-19T00:32:57.447Z,26.05
2022-10-19T00:35:59.806Z,26.30
2022-10-19T00:39:04.615Z,29.52
2022-10-19T00:42:10.954Z,32.28
2022-10-19T00:45:16.305Z,38.55
2022-10-19T00:48:30.677Z,34.28
2022-10-19T00:51:35.060Z,32.13
2022-10-19T00:54:39.239Z,22.90
2022-10-19T00:57:41.791Z,29.10
2022-10-19T01:00:44.285Z,24.83
2022-10-19T01:03:46.815Z,22.90
2022-10-19T01:06:49.234Z,26.83
2022-10-19T01:09:52.736Z,25.45
2022-10-19T01:13:15.278Z,25.30
2022-10-19T01:16:27.478Z,24.83
2022-10-19T01:19:35.671Z,24.08
2022-10-19T01:23:08.862Z,22.37
2022-10-19T01:26:32.945Z,22.13
2022-10-19T01:30:12.941Z,25.42
2022-10-19T01:33:18.230Z,25.63
2022-10-19T01:36:33.020Z,27.00
2022-10-19T01:39:46.409Z,24.07
2022-10-19T01:42:58.396Z,26.35
2022-10-19T01:46:32.070Z,23.50
2022-10-19T01:49:47.510Z,25.05
2022-10-19T01:52:50.978Z,26.73
2022-10-19T01:55:54.385Z,27.30
2022-10-19T01:58:58.372Z,28.00
2022-10-19T02:02:03.364Z,30.60
2022-10-19T02:05:06.539Z,27.05
2022-10-19T02:08:19.310Z,26.48
2022-10-19T02:11:23.468Z,27.33
2022-10-19T02:14:31.222Z,32.65
2022-10-19T02:17:37.419Z,26.58
2022-10-19T02:20:40.009Z,24.55
2022-10-19T02:23:42.555Z,24.48
2022-10-19T02:26:45.223Z,25.20
2022-10-19T02:29:47.938Z,26.30
2022-10-19T02:32:50.756Z,24.58
2022-10-19T02:35:53.239Z,22.30
2022-10-19T02:38:55.607Z,21.60
2022-10-19T02:42:03.491Z,24.17
2022-10-19T02:45:17.746Z,23.17
2022-10-19T02:48:22.941Z,21.95
2022-10-19T02:51:36.854Z,22.90
2022-10-19T02:54:40.859Z,22.33
2022-10-19T02:57:43.247Z,22.17
2022-10-19T03:00:45.691Z,19.55
2022-10-19T03:03:48.460Z,20.17
2022-10-19T03:06:50.827Z,20.23
2022-10-19T03:09:53.268Z,21.98
2022-10-19T03:12:58.173Z,20.33
2022-10-19T03:16:11.115Z,21.33
2022-10-19T03:19:13.806Z,19.60
2022-10-19T03:22:16.831Z,21.00
2022-10-19T03:25:19.268Z,20.65
2022-10-19T03:28:21.627Z,19.37
2022-10-19T03:31:25.681Z,17.17
2022-10-19T03:34:28.115Z,18.92
2022-10-19T03:37:30.496Z,21.63
2022-10-19T03:40:33.663Z,19.92
2022-10-19T03:43:36.051Z,20.27
2022-10-19T03:46:39.300Z,22.55
2022-10-19T03:49:43.508Z,21.10
2022-10-19T03:52:45.884Z,22.88
2022-10-19T03:55:48.218Z,26.48
2022-10-19T03:58:51.736Z,19.43
2022-10-19T04:01:54.118Z,22.45
2022-10-19T04:04:56.488Z,18.42
2022-10-19T04:07:58.891Z,20.27
2022-10-19T04:11:03.165Z,20.98
2022-10-19T04:14:05.815Z,17.97
2022-10-19T04:17:09.143Z,20.13
2022-10-19T04:20:11.708Z,32.42
2022-10-19T04:26:23.223Z,25.75
2022-10-19T04:29:29.598Z,26.90
2022-10-19T04:32:33.092Z,27.13
2022-10-19T04:35:35.423Z,27.33
2022-10-19T04:38:38.450Z,28.10
2022-10-19T04:41:40.948Z,35.22
2022-10-19T04:44:43.502Z,30.70
2022-10-19T04:47:45.845Z,30.02
2022-10-19T04:50:48.256Z,26.45
2022-10-19T04:53:59.546Z,29.10
2022-10-19T04:57:02.326Z,24.13
2022-10-19T05:00:05.390Z,23.83
2022-10-19T05:03:07.969Z,25.73
2022-10-19T05:06:11.432Z,23.65
2022-10-19T05:09:13.905Z,24.00
2022-10-19T05:12:16.465Z,27.35
2022-10-19T05:15:19.313Z,26.47
2022-10-19T05:18:21.770Z,23.55
2022-10-19T05:21:24.876Z,28.00
2022-10-19T05:24:27.509Z,30.55
2022-10-19T05:27:29.911Z,31.73
2022-10-19T05:30:32.902Z,29.43
2022-10-19T05:33:35.926Z,33.92
2022-10-19T05:36:39.927Z,27.85
2022-10-19T05:39:42.902Z,23.58
2022-10-19T05:42:45.392Z,26.60
2022-10-19T05:45:47.945Z,26.57
2022-10-19T05:48:50.469Z,24.80
2022-10-19T05:51:53.017Z,29.33
2022-10-19T05:54:56.872Z,26.23
2022-10-19T05:57:59.320Z,25.45
2022-10-19T06:01:02.692Z,48.13
2022-10-19T06:04:07.100Z,31.33
2022-10-19T06:07:09.640Z,28.27
2022-10-19T06:10:12.466Z,26.45
2022-10-19T06:13:16.045Z,25.05
2022-10-19T06:16:20.194Z,26.33
2022-10-19T06:19:22.674Z,36.15
2022-10-19T06:22:25.093Z,27.02
2022-10-19T06:25:27.469Z,37.90
2022-10-19T06:28:30.068Z,41.03
2022-10-19T06:31:34.813Z,28.43
2022-10-19T06:34:37.240Z,37.75
2022-10-19T06:37:39.675Z,29.17
2022-10-19T06:40:42.752Z,26.48
2022-10-19T06:43:52.311Z,31.67
2022-10-19T06:46:54.643Z,32.30
2022-10-19T06:49:57.553Z,49.83
2022-10-19T06:53:00.105Z,46.50
2022-10-19T06:56:04.772Z,43.67
2022-10-19T06:59:07.136Z,36.05
2022-10-19T07:02:13.082Z,32.20
2022-10-19T07:05:15.705Z,29.55
2022-10-19T07:08:18.150Z,25.48
2022-10-19T07:11:22.503Z,33.22
2022-10-19T07:14:25.389Z,32.08
2022-10-19T07:17:27.851Z,35.73
2022-10-19T07:20:30.449Z,31.77
2022-10-19T07:23:34.640Z,23.25
2022-10-19T07:26:37.064Z,23.42
2022-10-19T07:29:39.477Z,20.75
2022-10-19T07:32:46.746Z,22.10
2022-10-19T07:35:49.687Z,21.85
2022-10-19T07:38:52.688Z,16.65
2022-10-19T07:41:55.094Z,16.20
2022-10-19T07:44:57.559Z,15.68
2022-10-19T07:48:00.171Z,15.13
2022-10-19T07:51:06.393Z,15.18
2022-10-19T07:54:09.614Z,16.35
2022-10-19T08:02:20.619Z,23.50
2022-10-19T08:05:23.134Z,18.33
2022-10-19T08:08:25.889Z,20.23
2022-10-19T08:11:31.275Z,46.42
2022-10-19T08:14:34.118Z,14.38
2022-10-19T08:17:37.062Z,17.85
2022-10-19T08:20:45.766Z,15.20
2022-10-19T08:23:48.812Z,14.10
2022-10-19T08:26:52.247Z,8.77
2022-10-19T08:29:54.963Z,6.10
2022-10-19T08:32:57.367Z,4.38
2022-10-19T08:35:59.707Z,6.07
2022-10-19T08:39:05.277Z,7.28
2022-10-19T08:42:57.547Z,6.05
2022-10-19T08:46:33.785Z,11.10
2022-10-19T08:49:36.505Z,10.30
2022-10-19T08:52:39.336Z,3.83
2022-10-19T08:55:54.563Z,6.15
2022-10-19T08:59:12.970Z,5.38
2022-10-19T09:02:20.803Z,4.78
2022-10-19T09:05:40.655Z,10.30
2022-10-19T09:08:44.116Z,4.63
2022-10-19T09:11:50.326Z,2.35
2022-10-19T09:14:59.784Z,3.55
2022-10-19T09:18:03.607Z,2.75
2022-10-19T09:21:20.839Z,2.50
2022-10-19T09:24:44.428Z,2.70
2022-10-19T09:27:49.840Z,1.45
2022-10-19T09:30:55.805Z,1.48
2022-10-19T09:34:26.436Z,5.25
2022-10-19T09:40:37.614Z,2.07
2022-10-19T09:43:45.123Z,2.63
2022-10-19T09:47:13.922Z,2.65
2022-10-19T09:50:25.954Z,2.38
2022-10-19T09:53:29.839Z,1.63
2022-10-19T09:56:38.546Z,1.63
2022-10-19T09:59:42.581Z,0.90
2022-10-19T10:02:53.431Z,0.70
2022-10-19T10:05:58.695Z,1.88
2022-10-19T10:09:01.826Z,7.90
2022-10-19T10:12:04.711Z,1.50
2022-10-19T10:15:07.827Z,3.00
2022-10-19T10:18:16.129Z,1.27
2022-10-19T10:21:25.784Z,0.98
2022-10-19T10:24:31.305Z,1.48
2022-10-19T10:27:38.935Z,1.27
2022-10-19T10:30:41.936Z,0.75
2022-10-19T10:33:45.555Z,0.77
2022-10-19T10:36:53.928Z,1.40
2022-10-19T10:40:00.528Z,1.02
2022-10-19T10:43:15.909Z,1.97
2022-10-19T10:46:22.381Z,1.55
2022-10-19T10:49:28.386Z,1.60
2022-10-19T10:52:31.461Z,0.82
2022-10-19T10:55:34.423Z,1.98
2022-10-19T10:59:02.457Z,2.67
2022-10-19T11:02:11.927Z,1.50
2022-10-19T11:05:20.577Z,1.10
2022-10-19T11:08:47.088Z,1.73
2022-10-19T11:11:55.886Z,1.48
2022-10-19T11:15:11.960Z,1.43
2022-10-19T11:18:27.267Z,1.88
2022-10-19T11:21:42.986Z,1.02
2022-10-19T11:25:12.615Z,2.22
2022-10-19T11:28:42.920Z,1.33
2022-10-19T11:31:55.418Z,3.33
2022-10-19T11:35:06.177Z,5.20
2022-10-19T11:38:20.347Z,2.53
2022-10-19T11:41:27.850Z,3.03
2022-10-19T11:44:43.608Z,5.25
2022-10-19T11:48:04.392Z,2.03
2022-10-19T11:51:25.828Z,1.80
2022-10-19T11:54:49.446Z,2.15
2022-10-19T11:58:17.953Z,5.65
2022-10-19T12:01:46.634Z,1.35
2022-10-19T12:05:02.140Z,1.63
2022-10-19T12:08:16.500Z,3.05
2022-10-19T12:11:36.596Z,1.73
2022-10-19T12:14:40.795Z,1.80
2022-10-19T12:17:45.531Z,1.70
2022-10-19T12:20:51.529Z,1.60
2022-10-19T12:23:54.816Z,3.15
2022-10-19T12:26:57.981Z,2.75
2022-10-19T12:30:08.026Z,2.92
2022-10-19T12:33:21.301Z,3.10
2022-10-19T12:36:33.104Z,3.30
2022-10-19T12:39:49.915Z,3.35
2022-10-19T12:43:33.694Z,4.28
2022-10-19T12:46:42.702Z,3.20
2022-10-19T12:49:50.627Z,3.67
2022-10-19T12:52:55.310Z,2.33
2022-10-19T12:55:59.268Z,2.80
2022-10-19T12:59:01.953Z,1.95
2022-10-19T13:02:25.636Z,3.65
2022-10-19T13:05:29.884Z,9.18
2022-10-19T13:08:39.070Z,8.07
2022-10-19T13:12:25.851Z,3.80
2022-10-19T13:15:33.975Z,8.05
2022-10-19T13:19:01.191Z,10.02
2022-10-19T13:22:25.737Z,13.27
2022-10-19T13:25:41.503Z,26.47
2022-10-19T13:28:54.551Z,9.65
2022-10-19T13:32:35.632Z,10.07
2022-10-19T13:35:39.031Z,7.88
2022-10-19T13:38:50.392Z,19.40
2022-10-19T13:41:54.180Z,25.70
2022-10-19T13:44:56.724Z,10.95
2022-10-19T13:48:10.276Z,6.50
2022-10-19T13:51:33.631Z,6.90
2022-10-19T13:55:11.601Z,7.65
2022-10-19T13:58:38.450Z,6.83
2022-10-19T14:02:15.140Z,5.78
2022-10-19T14:05:43.472Z,5.25
2022-10-19T14:09:23.805Z,8.75
2022-10-19T14:12:29.724Z,17.27
2022-10-19T14:15:34.654Z,7.07
2022-10-19T14:18:37.707Z,6.25
2022-10-19T14:21:40.136Z,4.80
2022-10-19T14:24:42.493Z,17.42
2022-10-19T14:27:46.205Z,19.80
2022-10-19T14:30:55.775Z,41.40
2022-10-19T14:34:01.664Z,8.75
2022-10-19T14:37:04.095Z,8.80
2022-10-19T14:40:26.784Z,6.50
2022-10-19T14:43:31.674Z,10.68
2022-10-19T14:46:34.732Z,13.70
2022-10-19T14:49:37.256Z,10.52
2022-10-19T14:52:40.410Z,8.60
2022-10-19T14:55:43.186Z,7.18
2022-10-19T14:58:50.529Z,12.50
2022-10-19T15:01:57.428Z,10.33
2022-10-19T15:05:02.039Z,11.30
2022-10-19T15:08:11.489Z,12.82
2022-10-19T15:11:40.909Z,10.05
2022-10-19T15:14:43.500Z,15.48
2022-10-19T15:17:54.003Z,12.50
2022-10-19T15:21:12.071Z,7.50
2022-10-19T15:24:26.615Z,43.78
2022-10-19T15:27:47.202Z,23.75
2022-10-19T15:31:04.384Z,10.93
2022-10-19T15:34:35.806Z,7.57
2022-10-19T15:37:41.901Z,9.90
2022-10-19T15:40:46.053Z,15.63
2022-10-19T15:43:50.732Z,12.93
2022-10-19T15:47:14.786Z,10.35
2022-10-19T15:50:31.554Z,11.63
2022-10-19T15:53:33.943Z,10.30
2022-10-19T15:56:39.144Z,20.67
2022-10-19T15:59:41.591Z,9.70
2022-10-19T16:02:44.228Z,9.38
2022-10-19T16:05:47.198Z,8.50
2022-10-19T16:08:51.249Z,8.30
2022-10-19T16:11:57.088Z,8.57
2022-10-19T16:14:59.488Z,9.55
2022-10-19T16:18:02.073Z,7.80
2022-10-19T16:21:05.284Z,8.60
2022-10-19T16:24:08.095Z,9.25
2022-10-19T16:27:15.041Z,6.57
2022-10-19T16:30:17.893Z,6.55
2022-10-19T16:33:20.579Z,7.72
2022-10-19T16:36:23.060Z,8.23
2022-10-19T16:39:25.663Z,7.10
2022-10-19T16:42:30.449Z,6.03
2022-10-19T16:45:33.453Z,5.30
2022-10-19T16:48:35.966Z,3.60
2022-10-19T16:51:42.116Z,3.63
2022-10-19T16:54:44.465Z,3.80
2022-10-19T16:57:46.823Z,4.18
2022-10-19T17:00:49.259Z,4.72
2022-10-19T17:03:51.923Z,2.25
2022-10-19T17:06:54.583Z,4.33
2022-10-19T17:09:57.159Z,4.57
2022-10-19T17:12:59.983Z,3.50
2022-10-19T17:16:03.693Z,4.47
2022-10-19T17:19:08.127Z,3.50
2022-10-19T17:22:11.016Z,12.37
2022-10-19T17:25:13.710Z,12.80
2022-10-19T17:28:16.121Z,10.15
2022-10-19T17:31:19.002Z,3.28
2022-10-19T17:34:21.780Z,4.50
2022-10-19T17:37:24.460Z,8.47
2022-10-19T17:40:33.134Z,4.45
2022-10-19T17:43:37.984Z,5.60
2022-10-19T17:46:40.676Z,8.80
2022-10-19T17:49:43.520Z,12.60
2022-10-19T17:52:46.736Z,5.20
2022-10-19T17:55:49.136Z,6.03
2022-10-19T17:58:52.465Z,6.13
2022-10-19T18:01:55.156Z,25.00
2022-10-19T18:04:57.829Z,29.60
2022-10-19T18:08:00.431Z,15.73
2022-10-19T18:11:07.699Z,62.67
2022-10-19T18:14:11.634Z,18.15
2022-10-19T18:17:14.244Z,6.80
2022-10-19T18:20:19.645Z,11.23
2022-10-19T18:23:22.447Z,3.43
2022-10-19T18:26:27.380Z,4.68
2022-10-19T18:29:30.260Z,4.03
2022-10-19T18:32:33.232Z,2.70
2022-10-19T18:35:37.395Z,3.30
2022-10-19T18:38:40.245Z,2.70
2022-10-19T18:41:44.423Z,8.05
2022-10-19T18:44:47.358Z,9.50
2022-10-19T18:47:51.120Z,4.43
2022-10-19T18:50:53.972Z,2.47
2022-10-19T18:53:56.675Z,1.83
2022-10-19T18:56:59.847Z,4.50
2022-10-19T19:00:02.541Z,2.78
2022-10-19T19:03:05.270Z,8.07
2022-10-19T19:06:11.188Z,5.20
2022-10-19T19:09:14.166Z,4.07
2022-10-19T19:12:17.216Z,3.78
2022-10-19T19:15:20.187Z,3.78
2022-10-19T19:18:23.193Z,4.20
2022-10-19T19:21:28.452Z,4.10
2022-10-19T19:24:32.770Z,2.00
2022-10-19T19:27:35.417Z,2.25
2022-10-19T19:30:42.753Z,2.53
2022-10-19T19:33:46.123Z,3.00
2022-10-19T19:36:49.161Z,3.03
2022-10-19T19:39:51.767Z,3.27
2022-10-19T19:42:54.368Z,1.38
2022-10-19T19:46:00.036Z,2.22
2022-10-19T19:49:05.347Z,2.00
2022-10-19T19:52:08.000Z,2.03
2022-10-19T19:55:10.600Z,1.33
2022-10-19T19:58:15.477Z,2.00
2022-10-19T20:01:19.739Z,2.88
2022-10-19T20:04:22.450Z,2.35
2022-10-19T20:07:26.841Z,2.53
2022-10-19T20:10:30.279Z,4.23
2022-10-19T20:13:33.437Z,1.38
2022-10-19T20:16:36.977Z,1.08
2022-10-19T20:19:39.712Z,1.67
2022-10-19T20:22:46.201Z,2.00
2022-10-19T20:25:48.831Z,1.80
2022-10-19T20:28:52.140Z,2.85
2022-10-19T20:31:55.933Z,1.67
2022-10-19T20:34:59.955Z,1.02
2022-10-19T20:38:04.219Z,2.25
2022-10-19T20:41:09.262Z,1.27
2022-10-19T20:44:11.655Z,1.58
2022-10-19T20:47:14.176Z,1.73
2022-10-19T20:50:20.599Z,1.67
2022-10-19T20:53:24.325Z,1.65
2022-10-19T20:56:29.447Z,1.80
2022-10-19T20:59:33.298Z,1.75
2022-10-19T21:02:36.095Z,1.77
2022-10-19T21:05:38.907Z,2.85
2022-10-19T21:08:41.513Z,0.95
2022-10-19T21:11:45.290Z,2.70
2022-10-19T21:14:49.157Z,3.50
2022-10-19T21:17:51.548Z,2.22
2022-10-19T21:20:53.931Z,1.98
2022-10-19T21:23:58.919Z,3.30
2022-10-19T21:27:02.628Z,3.03
2022-10-19T21:30:05.309Z,1.73
2022-10-19T21:33:07.667Z,0.77
2022-10-19T21:36:10.900Z,1.55
2022-10-19T21:39:13.640Z,1.67
2022-10-19T21:42:16.033Z,1.57
2022-10-19T21:45:29.849Z,1.98
2022-10-19T21:48:34.028Z,2.13
2022-10-19T21:51:39.899Z,1.95
2022-10-19T21:54:42.376Z,1.55
2022-10-19T21:57:46.480Z,1.20
2022-10-19T22:00:50.158Z,1.65
2022-10-19T22:04:00.262Z,3.20
2022-10-19T22:07:02.635Z,2.30
2022-10-19T22:10:05.389Z,1.52
2022-10-19T22:13:07.904Z,2.03
2022-10-19T22:16:19.037Z,1.20
2022-10-19T22:19:21.520Z,2.05
2022-10-19T22:22:23.890Z,1.73
2022-10-19T22:25:26.198Z,2.10
2022-10-19T22:28:28.771Z,1.97
2022-10-19T22:31:32.243Z,2.30
2022-10-19T22:34:34.584Z,1.55
2022-10-19T22:37:36.990Z,2.15
2022-10-19T22:40:41.396Z,2.22
2022-10-19T22:43:43.811Z,1.87
2022-10-19T22:46:46.132Z,2.38
2022-10-19T22:49:48.666Z,3.05
2022-10-19T22:52:51.040Z,2.25
2022-10-19T22:55:53.451Z,1.60
2022-10-19T22:59:00.289Z,3.10
2022-10-19T23:02:02.848Z,1.98
2022-10-19T23:05:05.701Z,1.52
2022-10-19T23:08:08.074Z,2.42
2022-10-19T23:11:10.759Z,1.13
2022-10-19T23:14:13.101Z,1.53
2022-10-19T23:17:15.451Z,2.22
2022-10-19T23:20:19.564Z,2.45
2022-10-19T23:23:22.459Z,2.22
2022-10-19T23:26:25.102Z,2.38
2022-10-19T23:29:27.606Z,4.00
2022-10-19T23:32:30.146Z,1.73
2022-10-19T23:35:32.475Z,2.55
2022-10-19T23:38:35.634Z,2.78
2022-10-19T23:41:38.061Z,3.28
2022-10-19T23:44:40.432Z,4.00
2022-10-19T23:47:42.771Z,2.35
2022-10-19T23:50:56.699Z,1.92
2022-10-19T23:53:59.434Z,3.20
2022-10-19T23:57:01.937Z,1.83
